createdAt,value
2022-10-25T00:01:16.417Z,4.40
2022-10-25T00:06:18.063Z,4.03
2022-10-25T00:11:20.961Z,3.90
2022-10-25T00:16:24.610Z,3.67
2022-10-25T00:21:26.164Z,3.20
2022-10-25T00:26:27.569Z,3.55
2022-10-25T00:31:28.928Z,4.15
2022-10-25T00:36:30.602Z,3.08
2022-10-25T00:41:32.738Z,3.05
2022-10-25T00:46:34.084Z,2.50
2022-10-25T00:52:10.773Z,2.80
2022-10-25T00:57:17.259Z,3.00
2022-10-25T01:02:20.005Z,3.72
2022-10-25T01:07:21.427Z,3.22
2022-10-25T01:12:22.776Z,3.42
2022-10-25T01:17:29.957Z,2.90
2022-10-25T01:22:51.959Z,2.72
2022-10-25T01:33:14.122Z,2.67
2022-10-25T01:38:18.940Z,3.42
2022-10-25T01:43:29.147Z,3.10
2022-10-25T01:48:34.030Z,3.08
2022-10-25T01:53:43.193Z,3.00
2022-10-25T01:58:47.306Z,2.60
2022-10-25T02:03:54.241Z,3.08
2022-10-25T02:09:25.176Z,2.90
2022-10-25T02:14:29.229Z,3.13
2022-10-25T02:19:32.933Z,3.20
2022-10-25T02:24:35.844Z,2.88
2022-10-25T02:29:37.803Z,3.22
2022-10-25T02:34:39.683Z,2.70
2022-10-25T02:39:41.007Z,3.05
2022-10-25T02:44:42.395Z,3.65
2022-10-25T02:49:43.815Z,3.38
2022-10-25T02:54:45.157Z,3.17
2022-10-25T02:59:46.469Z,3.38
2022-10-25T03:04:47.861Z,3.20
2022-10-25T03:09:49.248Z,3.40
2022-10-25T03:14:50.658Z,3.28
2022-10-25T03:19:52.059Z,4.07
2022-10-25T03:24:55.825Z,2.90
2022-10-25T03:29:57.239Z,3.33
2022-10-25T03:34:58.661Z,3.42
2022-10-25T03:40:00.136Z,3.45
2022-10-25T03:45:01.475Z,4.05
2022-10-25T03:50:02.872Z,4.13
2022-10-25T03:55:04.637Z,4.10
2022-10-25T04:00:06.266Z,3.65
2022-10-25T04:05:07.877Z,3.88
2022-10-25T04:10:09.326Z,4.13
2022-10-25T04:15:10.827Z,3.22
2022-10-25T04:20:12.204Z,3.33
2022-10-25T04:25:13.524Z,3.20
2022-10-25T04:30:14.986Z,2.80
2022-10-25T04:35:16.421Z,3.10
2022-10-25T04:40:22.501Z,2.60
2022-10-25T04:45:26.171Z,2.60
2022-10-25T04:50:27.574Z,2.35
2022-10-25T04:55:28.909Z,2.30
2022-10-25T05:00:31.582Z,2.38
2022-10-25T05:05:32.937Z,2.38
2022-10-25T05:10:34.233Z,2.97
2022-10-25T05:15:35.642Z,2.40
2022-10-25T05:20:36.997Z,3.00
2022-10-25T05:25:39.340Z,2.15
2022-10-25T05:30:43.991Z,2.92
2022-10-25T05:35:45.309Z,2.55
2022-10-25T05:40:53.731Z,2.60
2022-10-25T05:46:06.030Z,3.10
2022-10-25T05:51:32.387Z,2.75
2022-10-25T05:56:35.395Z,2.50
2022-10-25T06:01:41.144Z,2.65
2022-10-25T06:06:43.586Z,2.40
2022-10-25T06:11:45.409Z,2.53
2022-10-25T06:16:46.895Z,2.47
2022-10-25T06:21:48.279Z,2.80
2022-10-25T06:26:49.656Z,2.70
2022-10-25T06:31:51.102Z,2.60
2022-10-25T06:36:52.585Z,2.67
2022-10-25T06:41:53.956Z,2.75
2022-10-25T06:52:16.625Z,4.30
2022-10-25T06:57:17.936Z,3.63
2022-10-25T07:02:19.414Z,3.35
2022-10-25T07:07:21.003Z,3.55
2022-10-25T07:12:22.331Z,3.33
2022-10-25T07:17:23.716Z,3.47
2022-10-25T07:22:25.335Z,3.13
2022-10-25T07:27:26.659Z,3.67
2022-10-25T07:32:28.174Z,2.95
2022-10-25T07:37:29.514Z,3.70
2022-10-25T07:42:30.894Z,3.13
2022-10-25T07:47:32.243Z,4.38
2022-10-25T07:52:33.605Z,4.15
2022-10-25T07:57:34.965Z,4.60
2022-10-25T08:02:36.666Z,4.90
2022-10-25T08:07:38.064Z,5.82
2022-10-25T08:12:39.410Z,6.35
2022-10-25T08:17:40.780Z,6.20
2022-10-25T08:22:42.184Z,6.45
2022-10-25T08:27:43.930Z,6.47
2022-10-25T08:32:45.434Z,6.45
2022-10-25T08:37:47.320Z,7.15
2022-10-25T08:43:06.382Z,6.32
2022-10-25T08:48:13.661Z,5.47
2022-10-25T08:53:27.841Z,4.32
2022-10-25T08:58:35.660Z,5.10
2022-10-25T09:03:37.217Z,3.85
2022-10-25T09:08:58.262Z,4.35
2022-10-25T09:14:05.274Z,4.25
2022-10-25T09:19:15.947Z,4.20
2022-10-25T09:24:21.456Z,4.60
2022-10-25T09:29:27.770Z,4.30
2022-10-25T09:34:35.668Z,4.43
2022-10-25T09:39:45.903Z,4.82
2022-10-25T09:44:49.948Z,4.22
2022-10-25T09:50:02.562Z,3.80
2022-10-25T09:55:15.951Z,3.65
2022-10-25T10:00:17.412Z,3.20
2022-10-25T10:05:20.019Z,2.63
2022-10-25T10:10:24.720Z,2.58
2022-10-25T10:15:27.652Z,3.03
2022-10-25T10:20:29.015Z,3.10
2022-10-25T10:25:30.904Z,2.65
2022-10-25T10:30:32.458Z,2.50
2022-10-25T10:35:34.999Z,2.78
2022-10-25T10:40:36.404Z,2.72
2022-10-25T10:45:37.784Z,3.03
2022-10-25T10:50:47.620Z,3.85
2022-10-25T10:55:50.195Z,3.80
2022-10-25T11:00:52.929Z,3.13
2022-10-25T11:05:56.979Z,3.70
2022-10-25T11:11:19.618Z,4.65
2022-10-25T11:16:39.169Z,5.47
2022-10-25T11:22:09.927Z,5.05
2022-10-25T11:27:33.059Z,5.70
2022-10-25T11:32:43.770Z,5.20
2022-10-25T11:37:51.274Z,4.97
2022-10-25T11:42:58.936Z,4.95
2022-10-25T11:48:18.313Z,5.80
2022-10-25T11:53:32.840Z,5.75
2022-10-25T11:58:34.160Z,5.75
2022-10-25T12:03:47.042Z,7.45
2022-10-25T12:09:09.647Z,8.82
2022-10-25T12:14:12.650Z,7.32
2022-10-25T12:19:16.956Z,7.43
2022-10-25T12:24:20.787Z,7.35
2022-10-25T12:29:26.435Z,6.82
2022-10-25T12:34:35.873Z,7.05
2022-10-25T12:39:37.245Z,6.82
2022-10-25T12:44:52.689Z,6.53
2022-10-25T12:50:00.038Z,5.90
2022-10-25T12:55:05.343Z,6.45
2022-10-25T13:00:12.229Z,6.40
2022-10-25T13:05:25.611Z,6.85
2022-10-25T13:10:27.067Z,6.90
2022-10-25T13:15:37.551Z,6.93
2022-10-25T13:20:38.940Z,6.22
2022-10-25T13:26:03.582Z,5.65
2022-10-25T13:31:23.443Z,6.35
2022-10-25T13:41:26.139Z,5.75
2022-10-25T13:46:38.204Z,6.68
2022-10-25T13:51:40.262Z,5.20
2022-10-25T13:56:49.600Z,5.07
2022-10-25T14:01:52.137Z,5.05
2022-10-25T14:06:54.507Z,4.38
2022-10-25T14:12:11.203Z,4.28
2022-10-25T14:17:32.131Z,3.72
2022-10-25T14:22:35.715Z,3.70
2022-10-25T14:27:37.247Z,4.13
2022-10-25T14:32:39.766Z,4.78
2022-10-25T14:37:42.234Z,4.82
2022-10-25T14:42:43.613Z,8.25
2022-10-25T14:47:45.041Z,7.93
2022-10-25T14:52:47.873Z,4.95
2022-10-25T14:57:50.397Z,3.92
2022-10-25T15:03:04.472Z,3.95
2022-10-25T15:08:06.192Z,3.55
2022-10-25T15:13:42.876Z,4.40
2022-10-25T15:18:45.751Z,3.20
2022-10-25T15:24:07.373Z,3.75
2022-10-25T15:29:08.731Z,4.30
2022-10-25T15:34:12.131Z,3.38
2022-10-25T15:39:27.538Z,4.03
2022-10-25T15:44:33.243Z,4.03
2022-10-25T15:49:34.722Z,4.47
2022-10-25T15:54:36.077Z,4.10
2022-10-25T15:59:37.475Z,4.10
2022-10-25T16:04:38.856Z,4.47
2022-10-25T16:09:40.375Z,4.88
2022-10-25T16:14:41.792Z,4.80
2022-10-25T16:19:43.215Z,4.50
2022-10-25T16:24:44.681Z,5.25
2022-10-25T16:29:47.111Z,5.88
2022-10-25T16:34:48.566Z,6.07
2022-10-25T16:39:49.956Z,5.22
2022-10-25T16:44:51.269Z,5.93
2022-10-25T16:49:52.695Z,5.43
2022-10-25T16:54:54.145Z,5.15
2022-10-25T16:59:55.534Z,5.97
2022-10-25T17:04:56.869Z,5.65
2022-10-25T17:09:58.231Z,5.75
2022-10-25T17:14:59.644Z,5.38
2022-10-25T17:20:01.007Z,5.18
2022-10-25T17:25:02.598Z,5.15
2022-10-25T17:30:04.769Z,5.28
2022-10-25T17:35:06.349Z,4.70
2022-10-25T17:40:07.992Z,4.35
2022-10-25T17:45:11.695Z,4.47
2022-10-25T17:50:13.826Z,3.67
2022-10-25T17:55:15.444Z,3.65
2022-10-25T18:00:16.998Z,4.28
2022-10-25T18:05:20.978Z,4.63
2022-10-25T18:10:25.063Z,5.03
2022-10-25T18:15:26.742Z,5.03
2022-10-25T18:20:28.111Z,6.25
2022-10-25T18:25:29.501Z,6.20
2022-10-25T18:30:30.900Z,5.80
2022-10-25T18:35:32.405Z,5.93
2022-10-25T18:40:33.969Z,5.50
2022-10-25T18:45:35.927Z,6.30
2022-10-25T18:50:40.438Z,6.63
2022-10-25T18:55:45.467Z,7.53
2022-10-25T19:00:47.369Z,6.32
2022-10-25T19:05:52.407Z,7.25
2022-10-25T19:10:53.839Z,7.18
2022-10-25T19:15:56.912Z,7.00
2022-10-25T19:21:02.382Z,7.32
2022-10-25T19:26:04.942Z,7.57
2022-10-25T19:31:12.106Z,8.00
2022-10-25T19:36:13.519Z,8.15
2022-10-25T19:41:16.592Z,8.02
2022-10-25T19:46:18.396Z,8.05
2022-10-25T19:51:20.292Z,7.50
2022-10-25T19:56:22.281Z,8.25
2022-10-25T20:01:29.641Z,7.60
2022-10-25T20:06:32.308Z,7.05
2022-10-25T20:11:33.961Z,7.75
2022-10-25T20:16:35.896Z,8.23
2022-10-25T20:21:37.325Z,8.98
2022-10-25T20:26:40.750Z,8.65
2022-10-25T20:31:42.235Z,8.40
2022-10-25T20:36:43.660Z,8.70
2022-10-25T20:41:45.173Z,8.75
2022-10-25T20:46:46.573Z,7.93
2022-10-25T20:51:47.887Z,7.47
2022-10-25T20:56:49.259Z,8.07
2022-10-25T21:01:50.814Z,8.10
2022-10-25T21:06:52.349Z,7.45
2022-10-25T21:11:54.670Z,7.30
2022-10-25T21:16:56.063Z,6.55
2022-10-25T21:21:57.381Z,6.82
2022-10-25T21:26:58.695Z,7.13
2022-10-25T21:32:00.003Z,5.63
2022-10-25T21:37:01.450Z,6.40
2022-10-25T21:42:02.853Z,6.07
2022-10-25T21:47:04.311Z,5.18
2022-10-25T21:52:05.686Z,5.53
2022-10-25T21:57:07.005Z,5.63
2022-10-25T22:02:08.474Z,4.85
2022-10-25T22:07:10.147Z,5.32
2022-10-25T22:12:12.019Z,4.75
2022-10-25T22:17:13.824Z,4.78
2022-10-25T22:22:15.189Z,5.10
2022-10-25T22:27:16.590Z,5.45
2022-10-25T22:32:18.031Z,5.38
2022-10-25T22:37:19.336Z,4.95
2022-10-25T22:42:20.650Z,4.63
2022-10-25T22:47:21.998Z,4.75
2022-10-25T22:52:23.330Z,4.65
2022-10-25T22:57:24.872Z,4.63
2022-10-25T23:02:26.246Z,5.88
2022-10-25T23:07:27.638Z,5.10
2022-10-25T23:12:28.948Z,4.65
2022-10-25T23:17:30.353Z,5.07
2022-10-25T23:22:32.303Z,5.20
2022-10-25T23:27:33.721Z,4.90
2022-10-25T23:32:35.076Z,5.38
2022-10-25T23:37:36.434Z,5.28
2022-10-25T23:42:37.779Z,5.00
2022-10-25T23:47:39.869Z,4.82
2022-10-25T23:52:41.211Z,5.43
2022-10-25T23:57:42.735Z,4.88
